sensor_id;sensor_type;location;lat;lon;timestamp;P1;durP1;ratioP1;P2;durP2;ratioP2
21645;SDS011;10984;45.712;4.800;2023-02-20T00:01:21;5.18;;;2.03;;
21645;SDS011;10984;45.712;4.800;2023-02-20T00:03:48;4.70;;;1.67;;
21645;SDS011;10984;45.712;4.800;2023-02-20T00:06:13;3.67;;;1.80;;
21645;SDS011;10984;45.712;4.800;2023-02-20T00:08:39;5.45;;;2.03;;
21645;SDS011;10984;45.712;4.800;2023-02-20T00:11:05;4.80;;;2.13;;
21645;SDS011;10984;45.712;4.800;2023-02-20T00:13:31;3.65;;;1.80;;
21645;SDS011;10984;45.712;4.800;2023-02-20T00:15:56;3.80;;;1.67;;
21645;SDS011;10984;45.712;4.800;2023-02-20T00:18:22;4.10;;;1.90;;
21645;SDS011;10984;45.712;4.800;2023-02-20T00:20:48;4.32;;;2.17;;
21645;SDS011;10984;45.712;4.800;2023-02-20T00:23:13;5.28;;;1.77;;
21645;SDS011;10984;45.712;4.800;2023-02-20T00:25:39;5.93;;;2.05;;
21645;SDS011;10984;45.712;4.800;2023-02-20T00:28:05;5.93;;;2.63;;
21645;SDS011;10984;45.712;4.800;2023-02-20T00:30:31;4.03;;;1.90;;
21645;SDS011;10984;45.712;4.800;2023-02-20T00:32:57;4.35;;;2.03;;
21645;SDS011;10984;45.712;4.800;2023-02-20T00:35:24;5.57;;;2.60;;
21645;SDS011;10984;45.712;4.800;2023-02-20T00:37:50;4.80;;;2.10;;
21645;SDS011;10984;45.712;4.800;2023-02-20T00:40:17;5.03;;;2.22;;
21645;SDS011;10984;45.712;4.800;2023-02-20T00:42:43;5.65;;;2.55;;
21645;SDS011;10984;45.712;4.800;2023-02-20T00:45:09;3.72;;;1.73;;
21645;SDS011;10984;45.712;4.800;2023-02-20T00:47:36;5.53;;;2.05;;
21645;SDS011;10984;45.712;4.800;2023-02-20T00:50:02;3.88;;;1.80;;
21645;SDS011;10984;45.712;4.800;2023-02-20T00:52:29;4.53;;;2.25;;
21645;SDS011;10984;45.712;4.800;2023-02-20T00:54:54;3.72;;;1.70;;
21645;SDS011;10984;45.712;4.800;2023-02-20T00:57:20;5.60;;;2.13;;
21645;SDS011;10984;45.712;4.800;2023-02-20T00:59:46;4.57;;;2.28;;
21645;SDS011;10984;45.712;4.800;2023-02-20T01:02:11;4.40;;;2.00;;
21645;SDS011;10984;45.712;4.800;2023-02-20T01:04:37;5.20;;;2.15;;
21645;SDS011;10984;45.712;4.800;2023-02-20T01:07:03;4.97;;;2.03;;
21645;SDS011;10984;45.712;4.800;2023-02-20T01:09:28;6.32;;;2.78;;
21645;SDS011;10984;45.712;4.800;2023-02-20T01:11:54;5.65;;;2.38;;
21645;SDS011;10984;45.712;4.800;2023-02-20T01:14:20;5.65;;;2.45;;
21645;SDS011;10984;45.712;4.800;2023-02-20T01:16:47;4.65;;;2.35;;
21645;SDS011;10984;45.712;4.800;2023-02-20T01:19:15;4.97;;;2.00;;
21645;SDS011;10984;45.712;4.800;2023-02-20T01:21:41;5.55;;;2.47;;
21645;SDS011;10984;45.712;4.800;2023-02-20T01:24:07;6.88;;;2.33;;
21645;SDS011;10984;45.712;4.800;2023-02-20T01:26:32;5.55;;;2.67;;
21645;SDS011;10984;45.712;4.800;2023-02-20T01:29:00;4.28;;;1.88;;
21645;SDS011;10984;45.712;4.800;2023-02-20T01:31:27;8.40;;;3.25;;
21645;SDS011;10984;45.712;4.800;2023-02-20T01:33:52;6.65;;;2.95;;
21645;SDS011;10984;45.712;4.800;2023-02-20T01:36:18;6.25;;;2.67;;
21645;SDS011;10984;45.712;4.800;2023-02-20T01:38:44;5.68;;;2.10;;
21645;SDS011;10984;45.712;4.800;2023-02-20T01:41:12;5.15;;;2.00;;
21645;SDS011;10984;45.712;4.800;2023-02-20T01:43:39;7.43;;;2.53;;
21645;SDS011;10984;45.712;4.800;2023-02-20T01:52:13;6.95;;;1.80;;
21645;SDS011;10984;45.712;4.800;2023-02-20T01:54:44;5.90;;;2.10;;
21645;SDS011;10984;45.712;4.800;2023-02-20T01:57:16;3.20;;;1.48;;
21645;SDS011;10984;45.712;4.800;2023-02-20T01:59:45;4.68;;;1.77;;
21645;SDS011;10984;45.712;4.800;2023-02-20T02:02:13;6.13;;;1.88;;
21645;SDS011;10984;45.712;4.800;2023-02-20T02:04:39;3.67;;;1.90;;
21645;SDS011;10984;45.712;4.800;2023-02-20T02:07:08;5.30;;;1.63;;
21645;SDS011;10984;45.712;4.800;2023-02-20T02:12:38;3.22;;;1.60;;
21645;SDS011;10984;45.712;4.800;2023-02-20T02:27:26;3.17;;;1.60;;
21645;SDS011;10984;45.712;4.800;2023-02-20T02:50:50;3.17;;;1.40;;
21645;SDS011;10984;45.712;4.800;2023-02-20T02:53:20;4.97;;;2.15;;
21645;SDS011;10984;45.712;4.800;2023-02-20T02:55:46;3.92;;;1.85;;
21645;SDS011;10984;45.712;4.800;2023-02-20T02:58:12;4.53;;;1.88;;
21645;SDS011;10984;45.712;4.800;2023-02-20T03:11:49;4.40;;;2.13;;
21645;SDS011;10984;45.712;4.800;2023-02-20T03:23:22;3.88;;;2.30;;
21645;SDS011;10984;45.712;4.800;2023-02-20T03:28:45;4.55;;;2.05;;
21645;SDS011;10984;45.712;4.800;2023-02-20T03:34:46;5.78;;;2.13;;
21645;SDS011;10984;45.712;4.800;2023-02-20T03:37:33;4.47;;;1.92;;
21645;SDS011;10984;45.712;4.800;2023-02-20T03:40:20;6.10;;;2.30;;
21645;SDS011;10984;45.712;4.800;2023-02-20T03:43:08;3.85;;;1.80;;
21645;SDS011;10984;45.712;4.800;2023-02-20T03:45:58;3.97;;;1.55;;
21645;SDS011;10984;45.712;4.800;2023-02-20T03:48:28;4.72;;;1.75;;
21645;SDS011;10984;45.712;4.800;2023-02-20T03:51:13;4.35;;;1.77;;
21645;SDS011;10984;45.712;4.800;2023-02-20T03:53:40;4.65;;;2.28;;
21645;SDS011;10984;45.712;4.800;2023-02-20T03:56:08;2.92;;;1.33;;
21645;SDS011;10984;45.712;4.800;2023-02-20T03:58:37;3.78;;;1.70;;
21645;SDS011;10984;45.712;4.800;2023-02-20T04:01:07;3.60;;;1.90;;
21645;SDS011;10984;45.712;4.800;2023-02-20T04:03:37;3.58;;;1.85;;
21645;SDS011;10984;45.712;4.800;2023-02-20T04:06:06;4.22;;;1.73;;
21645;SDS011;10984;45.712;4.800;2023-02-20T04:11:03;6.45;;;2.10;;
21645;SDS011;10984;45.712;4.800;2023-02-20T04:13:33;4.60;;;1.42;;
21645;SDS011;10984;45.712;4.800;2023-02-20T04:16:01;3.30;;;1.60;;
21645;SDS011;10984;45.712;4.800;2023-02-20T04:18:27;4.68;;;2.25;;
21645;SDS011;10984;45.712;4.800;2023-02-20T04:20:55;3.28;;;1.85;;
21645;SDS011;10984;45.712;4.800;2023-02-20T04:23:23;2.83;;;1.50;;
21645;SDS011;10984;45.712;4.800;2023-02-20T04:25:51;4.10;;;1.95;;
21645;SDS011;10984;45.712;4.800;2023-02-20T04:28:37;3.50;;;1.85;;
21645;SDS011;10984;45.712;4.800;2023-02-20T04:31:03;3.65;;;1.83;;
21645;SDS011;10984;45.712;4.800;2023-02-20T04:33:28;3.95;;;2.20;;
21645;SDS011;10984;45.712;4.800;2023-02-20T04:35:54;3.10;;;1.60;;
21645;SDS011;10984;45.712;4.800;2023-02-20T04:38:22;3.53;;;1.45;;
21645;SDS011;10984;45.712;4.800;2023-02-20T04:40:48;2.92;;;1.60;;
21645;SDS011;10984;45.712;4.800;2023-02-20T04:43:16;3.58;;;1.55;;
21645;SDS011;10984;45.712;4.800;2023-02-20T04:45:41;3.72;;;2.10;;
21645;SDS011;10984;45.712;4.800;2023-02-20T04:48:07;3.63;;;1.85;;
21645;SDS011;10984;45.712;4.800;2023-02-20T04:50:33;4.25;;;1.70;;
21645;SDS011;10984;45.712;4.800;2023-02-20T04:53:00;3.17;;;1.75;;
21645;SDS011;10984;45.712;4.800;2023-02-20T04:55:26;4.38;;;1.55;;
21645;SDS011;10984;45.712;4.800;2023-02-20T04:57:52;4.20;;;1.95;;
21645;SDS011;10984;45.712;4.800;2023-02-20T05:00:20;3.60;;;1.85;;
21645;SDS011;10984;45.712;4.800;2023-02-20T05:02:47;3.42;;;1.60;;
21645;SDS011;10984;45.712;4.800;2023-02-20T05:05:15;4.07;;;2.00;;
21645;SDS011;10984;45.712;4.800;2023-02-20T05:07:43;2.60;;;1.50;;
21645;SDS011;10984;45.712;4.800;2023-02-20T05:10:12;2.80;;;1.60;;
21645;SDS011;10984;45.712;4.800;2023-02-20T05:12:42;3.67;;;1.75;;
21645;SDS011;10984;45.712;4.800;2023-02-20T05:15:08;2.97;;;1.50;;
21645;SDS011;10984;45.712;4.800;2023-02-20T05:17:34;5.43;;;2.03;;
21645;SDS011;10984;45.712;4.800;2023-02-20T05:20:00;4.47;;;2.13;;
21645;SDS011;10984;45.712;4.800;2023-02-20T05:22:26;3.22;;;1.67;;
21645;SDS011;10984;45.712;4.800;2023-02-20T05:24:52;4.10;;;1.67;;
21645;SDS011;10984;45.712;4.800;2023-02-20T05:27:18;2.85;;;1.42;;
21645;SDS011;10984;45.712;4.800;2023-02-20T05:29:46;4.40;;;1.60;;
21645;SDS011;10984;45.712;4.800;2023-02-20T05:32:13;3.33;;;1.58;;
21645;SDS011;10984;45.712;4.800;2023-02-20T05:34:40;3.55;;;1.77;;
21645;SDS011;10984;45.712;4.800;2023-02-20T05:37:07;3.65;;;2.00;;
21645;SDS011;10984;45.712;4.800;2023-02-20T05:39:33;3.63;;;1.70;;
21645;SDS011;10984;45.712;4.800;2023-02-20T05:41:59;3.75;;;2.13;;
21645;SDS011;10984;45.712;4.800;2023-02-20T05:44:24;6.95;;;1.90;;
21645;SDS011;10984;45.712;4.800;2023-02-20T05:46:50;3.55;;;1.83;;
21645;SDS011;10984;45.712;4.800;2023-02-20T05:49:18;3.55;;;1.80;;
21645;SDS011;10984;45.712;4.800;2023-02-20T05:51:43;4.75;;;2.20;;
21645;SDS011;10984;45.712;4.800;2023-02-20T05:54:09;4.80;;;2.13;;
21645;SDS011;10984;45.712;4.800;2023-02-20T05:56:35;3.90;;;2.17;;
21645;SDS011;10984;45.712;4.800;2023-02-20T05:59:06;3.38;;;1.70;;
21645;SDS011;10984;45.712;4.800;2023-02-20T06:01:31;5.35;;;2.55;;
21645;SDS011;10984;45.712;4.800;2023-02-20T06:03:57;5.57;;;2.42;;
21645;SDS011;10984;45.712;4.800;2023-02-20T06:06:30;6.60;;;2.92;;
21645;SDS011;10984;45.712;4.800;2023-02-20T06:09:14;4.85;;;1.83;;
21645;SDS011;10984;45.712;4.800;2023-02-20T06:11:41;5.47;;;1.70;;
21645;SDS011;10984;45.712;4.800;2023-02-20T06:14:14;3.50;;;1.73;;
21645;SDS011;10984;45.712;4.800;2023-02-20T06:16:41;4.32;;;2.30;;
21645;SDS011;10984;45.712;4.800;2023-02-20T06:19:06;6.72;;;2.08;;
21645;SDS011;10984;45.712;4.800;2023-02-20T06:21:32;4.88;;;1.90;;
21645;SDS011;10984;45.712;4.800;2023-02-20T06:24:00;5.70;;;3.15;;
21645;SDS011;10984;45.712;4.800;2023-02-20T06:26:26;7.68;;;3.63;;
21645;SDS011;10984;45.712;4.800;2023-02-20T06:28:52;6.53;;;3.63;;
21645;SDS011;10984;45.712;4.800;2023-02-20T06:34:03;5.65;;;3.17;;
21645;SDS011;10984;45.712;4.800;2023-02-20T06:36:29;4.38;;;2.33;;
21645;SDS011;10984;45.712;4.800;2023-02-20T06:38:56;4.93;;;2.47;;
21645;SDS011;10984;45.712;4.800;2023-02-20T06:41:23;4.97;;;2.53;;
21645;SDS011;10984;45.712;4.800;2023-02-20T06:43:48;6.38;;;2.40;;
21645;SDS011;10984;45.712;4.800;2023-02-20T06:46:14;5.78;;;2.10;;
21645;SDS011;10984;45.712;4.800;2023-02-20T06:51:26;5.60;;;2.25;;
21645;SDS011;10984;45.712;4.800;2023-02-20T06:53:53;4.38;;;2.53;;
21645;SDS011;10984;45.712;4.800;2023-02-20T06:56:21;3.67;;;1.98;;
21645;SDS011;10984;45.712;4.800;2023-02-20T06:58:49;4.18;;;2.22;;
21645;SDS011;10984;45.712;4.800;2023-02-20T07:01:17;4.90;;;2.03;;
21645;SDS011;10984;45.712;4.800;2023-02-20T07:03:45;5.32;;;2.63;;
21645;SDS011;10984;45.712;4.800;2023-02-20T07:06:12;5.18;;;2.10;;
21645;SDS011;10984;45.712;4.800;2023-02-20T07:08:39;4.65;;;2.40;;
21645;SDS011;10984;45.712;4.800;2023-02-20T07:11:04;4.95;;;2.60;;
21645;SDS011;10984;45.712;4.800;2023-02-20T07:13:30;4.03;;;2.08;;
21645;SDS011;10984;45.712;4.800;2023-02-20T07:15:56;5.50;;;2.47;;
21645;SDS011;10984;45.712;4.800;2023-02-20T07:18:22;5.25;;;3.22;;
21645;SDS011;10984;45.712;4.800;2023-02-20T07:20:51;5.00;;;2.63;;
21645;SDS011;10984;45.712;4.800;2023-02-20T07:23:17;7.18;;;2.58;;
21645;SDS011;10984;45.712;4.800;2023-02-20T07:25:43;6.20;;;2.67;;
21645;SDS011;10984;45.712;4.800;2023-02-20T07:28:09;5.00;;;2.50;;
21645;SDS011;10984;45.712;4.800;2023-02-20T07:30:35;4.55;;;2.50;;
21645;SDS011;10984;45.712;4.800;2023-02-20T07:33:01;5.43;;;2.35;;
21645;SDS011;10984;45.712;4.800;2023-02-20T07:35:27;6.60;;;2.63;;
21645;SDS011;10984;45.712;4.800;2023-02-20T07:37:52;5.68;;;2.92;;
21645;SDS011;10984;45.712;4.800;2023-02-20T07:40:18;6.72;;;3.15;;
21645;SDS011;10984;45.712;4.800;2023-02-20T07:42:44;6.00;;;2.75;;
21645;SDS011;10984;45.712;4.800;2023-02-20T07:45:10;5.60;;;2.80;;
21645;SDS011;10984;45.712;4.800;2023-02-20T07:47:36;6.50;;;3.08;;
21645;SDS011;10984;45.712;4.800;2023-02-20T07:50:02;5.10;;;2.97;;
21645;SDS011;10984;45.712;4.800;2023-02-20T07:52:28;8.55;;;3.50;;
21645;SDS011;10984;45.712;4.800;2023-02-20T07:54:54;4.28;;;2.97;;
21645;SDS011;10984;45.712;4.800;2023-02-20T07:57:19;6.40;;;3.03;;
21645;SDS011;10984;45.712;4.800;2023-02-20T07:59:45;7.78;;;3.83;;
21645;SDS011;10984;45.712;4.800;2023-02-20T08:02:10;5.45;;;2.80;;
21645;SDS011;10984;45.712;4.800;2023-02-20T08:04:36;6.18;;;2.47;;
21645;SDS011;10984;45.712;4.800;2023-02-20T08:07:02;6.00;;;2.75;;
21645;SDS011;10984;45.712;4.800;2023-02-20T08:09:27;5.22;;;2.88;;
21645;SDS011;10984;45.712;4.800;2023-02-20T08:11:53;5.57;;;2.60;;
21645;SDS011;10984;45.712;4.800;2023-02-20T08:14:19;8.90;;;3.55;;
21645;SDS011;10984;45.712;4.800;2023-02-20T08:16:45;13.80;;;6.07;;
21645;SDS011;10984;45.712;4.800;2023-02-20T08:19:11;20.58;;;6.20;;
21645;SDS011;10984;45.712;4.800;2023-02-20T08:21:36;9.07;;;4.68;;
21645;SDS011;10984;45.712;4.800;2023-02-20T08:24:02;9.02;;;4.47;;
21645;SDS011;10984;45.712;4.800;2023-02-20T08:26:28;11.98;;;4.72;;
21645;SDS011;10984;45.712;4.800;2023-02-20T08:28:54;13.98;;;5.30;;
21645;SDS011;10984;45.712;4.800;2023-02-20T08:31:19;8.88;;;4.22;;
21645;SDS011;10984;45.712;4.800;2023-02-20T08:33:46;11.20;;;4.93;;
21645;SDS011;10984;45.712;4.800;2023-02-20T08:36:11;6.15;;;3.20;;
21645;SDS011;10984;45.712;4.800;2023-02-20T08:38:39;6.93;;;4.00;;
21645;SDS011;10984;45.712;4.800;2023-02-20T08:41:06;5.97;;;3.10;;
21645;SDS011;10984;45.712;4.800;2023-02-20T08:43:34;7.22;;;3.28;;
21645;SDS011;10984;45.712;4.800;2023-02-20T08:46:00;5.80;;;3.38;;
21645;SDS011;10984;45.712;4.800;2023-02-20T08:48:26;6.25;;;3.22;;
21645;SDS011;10984;45.712;4.800;2023-02-20T08:50:53;6.85;;;2.92;;
21645;SDS011;10984;45.712;4.800;2023-02-20T08:53:19;8.88;;;3.33;;
21645;SDS011;10984;45.712;4.800;2023-02-20T08:55:45;6.63;;;3.83;;
21645;SDS011;10984;45.712;4.800;2023-02-20T08:58:11;8.25;;;4.05;;
21645;SDS011;10984;45.712;4.800;2023-02-20T09:00:37;9.73;;;4.28;;
21645;SDS011;10984;45.712;4.800;2023-02-20T09:03:02;7.68;;;4.30;;
21645;SDS011;10984;45.712;4.800;2023-02-20T09:05:31;11.02;;;4.80;;
21645;SDS011;10984;45.712;4.800;2023-02-20T09:07:58;9.18;;;4.78;;
21645;SDS011;10984;45.712;4.800;2023-02-20T09:10:24;10.70;;;4.68;;
21645;SDS011;10984;45.712;4.800;2023-02-20T09:12:49;8.63;;;4.45;;
21645;SDS011;10984;45.712;4.800;2023-02-20T09:15:15;11.00;;;4.85;;
21645;SDS011;10984;45.712;4.800;2023-02-20T09:17:42;9.68;;;5.72;;
21645;SDS011;10984;45.712;4.800;2023-02-20T09:20:09;13.80;;;5.15;;
21645;SDS011;10984;45.712;4.800;2023-02-20T09:22:35;9.27;;;5.22;;
21645;SDS011;10984;45.712;4.800;2023-02-20T09:25:01;10.30;;;5.15;;
21645;SDS011;10984;45.712;4.800;2023-02-20T09:27:27;7.82;;;4.75;;
21645;SDS011;10984;45.712;4.800;2023-02-20T09:29:52;11.73;;;5.13;;
21645;SDS011;10984;45.712;4.800;2023-02-20T09:32:18;10.93;;;4.78;;
21645;SDS011;10984;45.712;4.800;2023-02-20T09:34:44;9.30;;;4.47;;
21645;SDS011;10984;45.712;4.800;2023-02-20T09:37:10;9.18;;;5.50;;
21645;SDS011;10984;45.712;4.800;2023-02-20T09:39:36;9.45;;;4.78;;
21645;SDS011;10984;45.712;4.800;2023-02-20T10:02:03;9.73;;;4.47;;
21645;SDS011;10984;45.712;4.800;2023-02-20T10:04:53;9.48;;;1.85;;
21645;SDS011;10984;45.712;4.800;2023-02-20T10:41:46;3.22;;;1.60;;
21645;SDS011;10984;45.712;4.800;2023-02-20T11:05:08;4.57;;;2.10;;
21645;SDS011;10984;45.712;4.800;2023-02-20T11:07:37;4.32;;;2.03;;
21645;SDS011;10984;45.712;4.800;2023-02-20T11:10:03;4.07;;;2.15;;
21645;SDS011;10984;45.712;4.800;2023-02-20T11:15:16;4.30;;;2.13;;
21645;SDS011;10984;45.712;4.800;2023-02-20T11:17:45;6.45;;;2.05;;
21645;SDS011;10984;45.712;4.800;2023-02-20T11:23:06;9.65;;;2.17;;
21645;SDS011;10984;45.712;4.800;2023-02-20T11:25:33;6.78;;;2.03;;
21645;SDS011;10984;45.712;4.800;2023-02-20T11:31:04;4.90;;;2.10;;
21645;SDS011;10984;45.712;4.800;2023-02-20T11:36:21;4.15;;;1.90;;
21645;SDS011;10984;45.712;4.800;2023-02-20T11:44:40;4.40;;;2.03;;
21645;SDS011;10984;45.712;4.800;2023-02-20T11:52:56;10.75;;;2.20;;
21645;SDS011;10984;45.712;4.800;2023-02-20T11:55:24;7.65;;;2.58;;
21645;SDS011;10984;45.712;4.800;2023-02-20T11:57:50;5.03;;;2.55;;
21645;SDS011;10984;45.712;4.800;2023-02-20T12:00:17;5.22;;;1.83;;
21645;SDS011;10984;45.712;4.800;2023-02-20T12:05:48;4.38;;;1.77;;
21645;SDS011;10984;45.712;4.800;2023-02-20T12:11:21;3.55;;;1.73;;
21645;SDS011;10984;45.712;4.800;2023-02-20T12:13:51;5.10;;;1.55;;
21645;SDS011;10984;45.712;4.800;2023-02-20T12:31:09;6.30;;;2.70;;
21645;SDS011;10984;45.712;4.800;2023-02-20T13:02:50;3.17;;;1.77;;
21645;SDS011;10984;45.712;4.800;2023-02-20T13:05:23;4.38;;;1.90;;
21645;SDS011;10984;45.712;4.800;2023-02-20T13:10:57;6.93;;;2.20;;
21645;SDS011;10984;45.712;4.800;2023-02-20T13:22:19;6.38;;;2.65;;
21645;SDS011;10984;45.712;4.800;2023-02-20T13:24:45;6.88;;;2.33;;
21645;SDS011;10984;45.712;4.800;2023-02-20T13:27:26;10.93;;;2.72;;
21645;SDS011;10984;45.712;4.800;2023-02-20T13:36:02;6.93;;;3.17;;
21645;SDS011;10984;45.712;4.800;2023-02-20T13:38:29;8.23;;;2.90;;
21645;SDS011;10984;45.712;4.800;2023-02-20T13:45:46;10.32;;;3.60;;
21645;SDS011;10984;45.712;4.800;2023-02-20T13:48:50;10.35;;;3.42;;
21645;SDS011;10984;45.712;4.800;2023-02-20T13:59:54;10.48;;;3.60;;
21645;SDS011;10984;45.712;4.800;2023-02-20T14:02:21;5.88;;;3.03;;
21645;SDS011;10984;45.712;4.800;2023-02-20T14:05:06;8.27;;;3.63;;
21645;SDS011;10984;45.712;4.800;2023-02-20T14:10:27;7.78;;;2.63;;
21645;SDS011;10984;45.712;4.800;2023-02-20T14:18:51;5.10;;;2.42;;
21645;SDS011;10984;45.712;4.800;2023-02-20T14:21:21;6.43;;;2.85;;
21645;SDS011;10984;45.712;4.800;2023-02-20T14:23:47;7.47;;;2.03;;
21645;SDS011;10984;45.712;4.800;2023-02-20T14:28:58;5.78;;;2.38;;
21645;SDS011;10984;45.712;4.800;2023-02-20T14:37:13;7.15;;;2.42;;
21645;SDS011;10984;45.712;4.800;2023-02-20T14:43:03;4.93;;;2.35;;
21645;SDS011;10984;45.712;4.800;2023-02-20T14:48:44;8.32;;;2.50;;
21645;SDS011;10984;45.712;4.800;2023-02-20T14:56:57;4.97;;;1.85;;
21645;SDS011;10984;45.712;4.800;2023-02-20T14:59:26;5.25;;;2.40;;
21645;SDS011;10984;45.712;4.800;2023-02-20T15:01:58;3.58;;;1.65;;
21645;SDS011;10984;45.712;4.800;2023-02-20T15:04:25;4.43;;;1.75;;
21645;SDS011;10984;45.712;4.800;2023-02-20T15:06:52;6.63;;;1.88;;
21645;SDS011;10984;45.712;4.800;2023-02-20T15:09:19;6.15;;;2.20;;
21645;SDS011;10984;45.712;4.800;2023-02-20T15:19:59;7.30;;;1.55;;
21645;SDS011;10984;45.712;4.800;2023-02-20T15:22:30;6.57;;;1.48;;
21645;SDS011;10984;45.712;4.800;2023-02-20T15:33:53;6.13;;;2.08;;
21645;SDS011;10984;45.712;4.800;2023-02-20T15:36:20;6.43;;;1.38;;
21645;SDS011;10984;45.712;4.800;2023-02-20T15:38:51;5.38;;;1.52;;
21645;SDS011;10984;45.712;4.800;2023-02-20T15:41:17;2.65;;;1.20;;
21645;SDS011;10984;45.712;4.800;2023-02-20T15:43:45;3.42;;;1.63;;
21645;SDS011;10984;45.712;4.800;2023-02-20T15:46:11;6.80;;;1.40;;
21645;SDS011;10984;45.712;4.800;2023-02-20T15:48:38;4.93;;;1.50;;
21645;SDS011;10984;45.712;4.800;2023-02-20T15:51:04;3.22;;;1.15;;
21645;SDS011;10984;45.712;4.800;2023-02-20T15:53:30;5.85;;;1.48;;
21645;SDS011;10984;45.712;4.800;2023-02-20T15:55:57;4.70;;;1.52;;
21645;SDS011;10984;45.712;4.800;2023-02-20T16:01:10;3.90;;;1.63;;
21645;SDS011;10984;45.712;4.800;2023-02-20T16:03:36;2.40;;;1.20;;
21645;SDS011;10984;45.712;4.800;2023-02-20T16:06:01;4.40;;;1.35;;
21645;SDS011;10984;45.712;4.800;2023-02-20T16:08:27;3.42;;;1.17;;
21645;SDS011;10984;45.712;4.800;2023-02-20T16:10:53;5.60;;;1.20;;
21645;SDS011;10984;45.712;4.800;2023-02-20T16:19:03;1.90;;;0.80;;
21645;SDS011;10984;45.712;4.800;2023-02-20T16:21:33;9.93;;;1.25;;
21645;SDS011;10984;45.712;4.800;2023-02-20T16:23:59;5.72;;;1.35;;
21645;SDS011;10984;45.712;4.800;2023-02-20T16:26:26;3.70;;;1.00;;
21645;SDS011;10984;45.712;4.800;2023-02-20T16:28:56;2.50;;;1.00;;
21645;SDS011;10984;45.712;4.800;2023-02-20T16:34:29;3.70;;;1.00;;
21645;SDS011;10984;45.712;4.800;2023-02-20T16:36:56;5.32;;;1.33;;
21645;SDS011;10984;45.712;4.800;2023-02-20T16:39:22;3.42;;;1.33;;
21645;SDS011;10984;45.712;4.800;2023-02-20T16:41:48;2.42;;;1.10;;
21645;SDS011;10984;45.712;4.800;2023-02-20T16:44:17;4.93;;;1.60;;
21645;SDS011;10984;45.712;4.800;2023-02-20T16:46:54;4.00;;;1.35;;
21645;SDS011;10984;45.712;4.800;2023-02-20T16:49:20;5.28;;;1.50;;
21645;SDS011;10984;45.712;4.800;2023-02-20T16:51:45;3.20;;;1.65;;
21645;SDS011;10984;45.712;4.800;2023-02-20T16:54:15;4.28;;;1.90;;
21645;SDS011;10984;45.712;4.800;2023-02-20T16:56:41;4.13;;;1.38;;
21645;SDS011;10984;45.712;4.800;2023-02-20T16:59:06;3.53;;;1.73;;
21645;SDS011;10984;45.712;4.800;2023-02-20T17:01:34;4.30;;;1.92;;
21645;SDS011;10984;45.712;4.800;2023-02-20T17:04:00;4.55;;;1.63;;
21645;SDS011;10984;45.712;4.800;2023-02-20T17:06:26;10.10;;;1.60;;
21645;SDS011;10984;45.712;4.800;2023-02-20T17:08:54;5.57;;;1.73;;
21645;SDS011;10984;45.712;4.800;2023-02-20T17:11:39;6.10;;;1.63;;
21645;SDS011;10984;45.712;4.800;2023-02-20T17:14:04;6.82;;;1.85;;
21645;SDS011;10984;45.712;4.800;2023-02-20T17:16:30;7.43;;;1.67;;
21645;SDS011;10984;45.712;4.800;2023-02-20T17:18:56;4.63;;;1.63;;
21645;SDS011;10984;45.712;4.800;2023-02-20T17:21:21;4.22;;;1.33;;
21645;SDS011;10984;45.712;4.800;2023-02-20T17:23:47;5.90;;;1.52;;
21645;SDS011;10984;45.712;4.800;2023-02-20T17:26:12;5.88;;;1.90;;
21645;SDS011;10984;45.712;4.800;2023-02-20T17:28:39;5.88;;;1.60;;
21645;SDS011;10984;45.712;4.800;2023-02-20T17:31:05;6.05;;;1.48;;
21645;SDS011;10984;45.712;4.800;2023-02-20T17:33:30;3.55;;;1.40;;
21645;SDS011;10984;45.712;4.800;2023-02-20T17:35:56;6.00;;;2.22;;
21645;SDS011;10984;45.712;4.800;2023-02-20T17:38:21;6.70;;;2.45;;
21645;SDS011;10984;45.712;4.800;2023-02-20T17:40:48;5.22;;;2.20;;
21645;SDS011;10984;45.712;4.800;2023-02-20T17:43:14;5.15;;;2.10;;
21645;SDS011;10984;45.712;4.800;2023-02-20T17:45:39;8.70;;;2.22;;
21645;SDS011;10984;45.712;4.800;2023-02-20T17:48:05;5.63;;;2.30;;
21645;SDS011;10984;45.712;4.800;2023-02-20T17:50:32;5.30;;;2.20;;
21645;SDS011;10984;45.712;4.800;2023-02-20T17:52:58;6.97;;;2.55;;
21645;SDS011;10984;45.712;4.800;2023-02-20T17:55:24;5.70;;;2.95;;
21645;SDS011;10984;45.712;4.800;2023-02-20T17:57:51;9.98;;;4.32;;
21645;SDS011;10984;45.712;4.800;2023-02-20T18:00:17;8.70;;;4.38;;
21645;SDS011;10984;45.712;4.800;2023-02-20T18:02:44;7.95;;;4.72;;
21645;SDS011;10984;45.712;4.800;2023-02-20T18:05:10;8.02;;;4.03;;
21645;SDS011;10984;45.712;4.800;2023-02-20T18:07:36;10.00;;;4.13;;
21645;SDS011;10984;45.712;4.800;2023-02-20T18:10:02;15.02;;;7.75;;
21645;SDS011;10984;45.712;4.800;2023-02-20T18:12:29;16.67;;;9.07;;
21645;SDS011;10984;45.712;4.800;2023-02-20T18:14:54;16.27;;;6.57;;
21645;SDS011;10984;45.712;4.800;2023-02-20T18:17:20;11.68;;;6.57;;
21645;SDS011;10984;45.712;4.800;2023-02-20T18:19:47;12.60;;;7.57;;
21645;SDS011;10984;45.712;4.800;2023-02-20T18:22:13;22.85;;;6.72;;
21645;SDS011;10984;45.712;4.800;2023-02-20T18:24:38;11.65;;;7.57;;
21645;SDS011;10984;45.712;4.800;2023-02-20T18:27:04;17.88;;;8.65;;
21645;SDS011;10984;45.712;4.800;2023-02-20T18:29:31;16.00;;;8.23;;
21645;SDS011;10984;45.712;4.800;2023-02-20T18:31:57;18.40;;;11.80;;
21645;SDS011;10984;45.712;4.800;2023-02-20T18:34:23;24.60;;;14.68;;
21645;SDS011;10984;45.712;4.800;2023-02-20T18:36:52;19.02;;;11.88;;
21645;SDS011;10984;45.712;4.800;2023-02-20T18:39:18;18.40;;;9.70;;
21645;SDS011;10984;45.712;4.800;2023-02-20T18:44:28;22.13;;;11.20;;
21645;SDS011;10984;45.712;4.800;2023-02-20T18:46:53;24.77;;;13.05;;
21645;SDS011;10984;45.712;4.800;2023-02-20T18:49:19;25.05;;;14.57;;
21645;SDS011;10984;45.712;4.800;2023-02-20T18:51:45;23.90;;;13.60;;
21645;SDS011;10984;45.712;4.800;2023-02-20T18:56:57;22.17;;;11.68;;
21645;SDS011;10984;45.712;4.800;2023-02-20T18:59:24;23.02;;;12.25;;
21645;SDS011;10984;45.712;4.800;2023-02-20T19:01:55;26.73;;;12.95;;
21645;SDS011;10984;45.712;4.800;2023-02-20T19:04:22;23.83;;;12.52;;
21645;SDS011;10984;45.712;4.800;2023-02-20T19:06:48;24.70;;;11.75;;
21645;SDS011;10984;45.712;4.800;2023-02-20T19:09:18;23.00;;;11.68;;
21645;SDS011;10984;45.712;4.800;2023-02-20T19:14:31;24.15;;;12.27;;
21645;SDS011;10984;45.712;4.800;2023-02-20T19:16:57;22.83;;;12.63;;
21645;SDS011;10984;45.712;4.800;2023-02-20T19:19:26;19.65;;;10.90;;
21645;SDS011;10984;45.712;4.800;2023-02-20T19:21:54;19.40;;;10.38;;
21645;SDS011;10984;45.712;4.800;2023-02-20T19:24:20;18.85;;;9.93;;
21645;SDS011;10984;45.712;4.800;2023-02-20T19:26:46;17.75;;;9.02;;
21645;SDS011;10984;45.712;4.800;2023-02-20T19:29:12;14.90;;;8.23;;
21645;SDS011;10984;45.712;4.800;2023-02-20T19:31:38;15.88;;;8.02;;
21645;SDS011;10984;45.712;4.800;2023-02-20T19:34:04;12.40;;;6.75;;
21645;SDS011;10984;45.712;4.800;2023-02-20T19:36:31;11.32;;;7.75;;
21645;SDS011;10984;45.712;4.800;2023-02-20T19:38:57;14.40;;;8.50;;
21645;SDS011;10984;45.712;4.800;2023-02-20T19:41:24;20.58;;;9.25;;
21645;SDS011;10984;45.712;4.800;2023-02-20T19:43:49;16.98;;;8.90;;
21645;SDS011;10984;45.712;4.800;2023-02-20T19:48:59;18.75;;;10.23;;
21645;SDS011;10984;45.712;4.800;2023-02-20T19:51:25;25.65;;;10.88;;
21645;SDS011;10984;45.712;4.800;2023-02-20T19:53:51;19.58;;;9.85;;
21645;SDS011;10984;45.712;4.800;2023-02-20T19:56:16;22.00;;;10.18;;
21645;SDS011;10984;45.712;4.800;2023-02-20T19:58:42;22.20;;;11.30;;
21645;SDS011;10984;45.712;4.800;2023-02-20T20:03:52;21.80;;;9.98;;
21645;SDS011;10984;45.712;4.800;2023-02-20T20:06:18;23.35;;;10.23;;
21645;SDS011;10984;45.712;4.800;2023-02-20T20:08:48;21.40;;;10.85;;
21645;SDS011;10984;45.712;4.800;2023-02-20T20:11:14;21.65;;;11.18;;
21645;SDS011;10984;45.712;4.800;2023-02-20T20:13:40;28.85;;;16.00;;